Terminal Aerodrome Forecast
Issued by NWS Charleston, WV

Current Version | Previous Version | Graphics & Text | Print | Product List | Glossary On
Versions: 1 2 3 4 5 6 7 8 9 10 11 12 13 14 15 16 17 18 19 20 21 22 23 24
313
FTUS41 KRLX 230900 AAA
TAFEKN
TAF AMD
KEKN 230900Z 2309/2406 00000KT P6SM FEW005 BKN016 OVC060
     FM231300 00000KT 6SM BR BKN024
     FM231800 34005KT P6SM VCTS BKN040CB
     FM232000 34006KT 4SM -SHRA VCTS BKN040CB
     FM232200 33005KT P6SM VCSH BKN040
     FM240000 00000KT P6SM SCT070=

USA.gov is the U.S. government's official web portal to all federal, state and local government web resources and services.